createdAt,value
2018-05-19T00:00:46.553Z,45.73
2018-05-19T00:03:14.297Z,44.47
2018-05-19T00:05:42.841Z,56.80
2018-05-19T00:08:10.576Z,45.67
2018-05-19T00:10:38.377Z,50.43
2018-05-19T00:13:06.177Z,56.40
2018-05-19T00:15:34.676Z,71.33
2018-05-19T00:18:02.412Z,79.07
2018-05-19T00:20:30.912Z,90.10
2018-05-19T00:22:58.641Z,97.70
2018-05-19T00:25:26.384Z,85.83
2018-05-19T00:27:54.155Z,92.47
2018-05-19T00:30:21.885Z,75.80
2018-05-19T00:32:49.634Z,94.77
2018-05-19T00:35:17.373Z,79.03
2018-05-19T00:37:45.871Z,62.67
2018-05-19T00:40:13.605Z,57.53
2018-05-19T00:42:41.335Z,93.83
2018-05-19T00:45:09.091Z,82.73
2018-05-19T00:47:36.832Z,75.03
2018-05-19T00:50:04.589Z,64.97
2018-05-19T00:52:32.336Z,42.93
2018-05-19T00:55:07.704Z,39.53
2018-05-19T00:57:35.454Z,33.73
2018-05-19T01:00:04.068Z,40.37
2018-05-19T01:02:31.817Z,33.87
2018-05-19T01:04:59.560Z,38.40
2018-05-19T01:07:28.067Z,47.23
2018-05-19T01:09:55.810Z,47.47
2018-05-19T01:12:24.309Z,37.30
2018-05-19T01:14:52.053Z,33.90
2018-05-19T01:17:21.853Z,39.83
2018-05-19T01:19:50.356Z,58.70
2018-05-19T01:22:18.109Z,53.50
2018-05-19T01:24:45.873Z,40.27
2018-05-19T01:27:14.390Z,34.03
2018-05-19T01:29:42.128Z,31.43
2018-05-19T01:32:09.878Z,35.03
2018-05-19T01:34:38.426Z,26.07
2018-05-19T01:37:06.208Z,29.37
2018-05-19T01:39:33.954Z,34.60
2018-05-19T01:42:01.710Z,32.03
2018-05-19T01:44:29.509Z,32.53
2018-05-19T01:46:58.009Z,27.97
2018-05-19T01:49:25.761Z,30.37
2018-05-19T01:51:54.286Z,34.37
2018-05-19T01:54:22.032Z,26.00
2018-05-19T01:56:49.773Z,28.67
2018-05-19T01:59:18.309Z,27.70
2018-05-19T02:01:46.048Z,30.33
2018-05-19T02:04:13.787Z,27.83
2018-05-19T02:06:41.513Z,33.57
2018-05-19T02:09:09.282Z,44.13
2018-05-19T02:11:37.052Z,32.80
2018-05-19T02:14:04.800Z,39.03
2018-05-19T02:16:32.564Z,32.33
2018-05-19T02:19:00.296Z,31.73
2018-05-19T02:21:28.044Z,33.50
2018-05-19T02:23:56.567Z,35.17
2018-05-19T02:26:24.365Z,41.87
2018-05-19T02:28:52.872Z,36.50
2018-05-19T02:31:20.651Z,43.83
2018-05-19T02:33:48.388Z,36.97
2018-05-19T02:36:16.128Z,28.63
2018-05-19T02:38:43.892Z,35.23
2018-05-19T02:41:12.418Z,33.60
2018-05-19T02:43:40.180Z,39.77
2018-05-19T02:46:08.690Z,38.50
2018-05-19T02:48:36.448Z,53.23
2018-05-19T02:51:04.211Z,43.23
2018-05-19T02:53:31.960Z,43.20
2018-05-19T02:55:59.704Z,55.57
2018-05-19T02:58:27.453Z,42.03
2018-05-19T03:00:55.945Z,51.83
2018-05-19T03:03:23.697Z,56.13
2018-05-19T03:05:52.204Z,49.13
2018-05-19T03:08:19.953Z,50.37
2018-05-19T03:10:47.712Z,36.30
2018-05-19T03:13:15.441Z,40.90
2018-05-19T03:15:43.168Z,45.27
2018-05-19T03:18:10.973Z,70.87
2018-05-19T03:20:38.706Z,59.10
2018-05-19T03:23:06.441Z,43.90
2018-05-19T03:25:34.205Z,58.00
2018-05-19T03:28:01.973Z,53.37
2018-05-19T03:30:29.717Z,32.27
2018-05-19T03:32:59.051Z,27.77
2018-05-19T03:35:26.800Z,42.27
2018-05-19T03:37:54.576Z,27.97
2018-05-19T03:40:22.330Z,38.27
2018-05-19T03:42:50.090Z,41.40
2018-05-19T03:45:17.841Z,31.10
2018-05-19T03:47:45.587Z,30.47
2018-05-19T03:50:14.089Z,34.40
2018-05-19T03:52:41.860Z,31.87
2018-05-19T03:55:09.612Z,27.23
2018-05-19T03:57:49.193Z,35.40
2018-05-19T04:00:28.649Z,49.90
2018-05-19T04:02:56.396Z,46.37
2018-05-19T04:05:24.158Z,50.50
2018-05-19T04:07:51.892Z,45.77
2018-05-19T04:10:19.661Z,47.63
2018-05-19T04:12:47.396Z,44.80
2018-05-19T04:15:15.916Z,50.63
2018-05-19T04:17:43.661Z,46.23
2018-05-19T04:20:11.404Z,51.67
2018-05-19T04:22:39.905Z,67.07
2018-05-19T04:25:07.685Z,79.67
2018-05-19T04:27:35.433Z,69.37
2018-05-19T04:30:03.201Z,80.43
2018-05-19T04:32:30.949Z,72.90
2018-05-19T04:34:59.456Z,58.97
2018-05-19T04:37:27.257Z,58.17
2018-05-19T04:39:55.006Z,65.30
2018-05-19T04:42:22.751Z,69.60
2018-05-19T04:44:50.520Z,49.30
2018-05-19T04:47:18.260Z,53.60
2018-05-19T04:49:46.806Z,52.47
2018-05-19T04:52:14.541Z,55.47
2018-05-19T04:54:42.280Z,67.20
2018-05-19T04:57:10.035Z,80.53
2018-05-19T04:59:37.777Z,72.50
2018-05-19T05:02:06.281Z,94.03
2018-05-19T05:04:34.037Z,101.90
2018-05-19T05:07:01.777Z,86.60
2018-05-19T05:09:30.285Z,91.53
2018-05-19T05:11:58.084Z,66.37
2018-05-19T05:14:25.845Z,89.27
2018-05-19T05:16:54.582Z,58.70
2018-05-19T05:19:23.091Z,89.60
2018-05-19T05:21:50.857Z,76.43
2018-05-19T05:24:19.376Z,50.00
2018-05-19T05:26:47.121Z,40.93
2018-05-19T05:29:14.884Z,58.37
2018-05-19T05:31:42.632Z,46.33
2018-05-19T05:34:11.173Z,16.20
2018-05-19T05:36:39.734Z,19.00
2018-05-19T05:39:07.613Z,17.73
2018-05-19T05:41:36.156Z,14.83
2018-05-19T05:44:03.952Z,10.73
2018-05-19T05:46:31.688Z,14.13
2018-05-19T05:48:59.433Z,21.10
2018-05-19T05:51:27.184Z,23.73
2018-05-19T05:53:54.944Z,17.10
2018-05-19T05:56:23.465Z,20.10
2018-05-19T05:58:51.247Z,24.20
2018-05-19T06:01:18.984Z,16.20
2018-05-19T06:03:46.716Z,12.63
2018-05-19T06:06:18.462Z,19.37
2018-05-19T06:08:46.139Z,22.60
2018-05-19T06:11:13.873Z,20.17
2018-05-19T06:13:41.613Z,29.30
2018-05-19T06:16:09.358Z,17.73
2018-05-19T06:18:37.106Z,14.53
2018-05-19T06:21:04.877Z,24.30
2018-05-19T06:23:32.612Z,29.13
2018-05-19T06:26:01.104Z,30.77
2018-05-19T06:28:28.842Z,31.83
2018-05-19T06:30:57.365Z,19.80
2018-05-19T06:33:25.096Z,16.03
2018-05-19T06:35:53.597Z,21.13
2018-05-19T06:38:21.328Z,14.60
2018-05-19T06:40:49.055Z,13.70
2018-05-19T06:43:16.786Z,18.33
2018-05-19T06:45:44.528Z,22.00
2018-05-19T06:48:13.166Z,12.60
2018-05-19T06:50:40.832Z,13.77
2018-05-19T06:53:08.636Z,12.60
2018-05-19T06:55:37.169Z,14.57
2018-05-19T06:58:04.924Z,13.80
2018-05-19T07:00:32.698Z,22.47
2018-05-19T07:03:00.456Z,14.73
2018-05-19T07:05:28.201Z,14.63
2018-05-19T07:07:55.951Z,21.10
2018-05-19T07:10:23.714Z,17.13
2018-05-19T07:12:52.205Z,17.87
2018-05-19T07:15:19.940Z,15.17
2018-05-19T07:17:48.468Z,15.17
2018-05-19T07:20:16.215Z,19.53
2018-05-19T07:22:43.950Z,22.17
2018-05-19T07:25:12.525Z,17.73
2018-05-19T07:27:40.291Z,15.77
2018-05-19T07:30:08.028Z,12.80
2018-05-19T07:32:35.794Z,12.97
2018-05-19T07:35:03.558Z,22.17
2018-05-19T07:37:31.360Z,17.03
2018-05-19T07:39:59.865Z,16.53
2018-05-19T07:42:29.870Z,17.53
2018-05-19T07:44:57.760Z,11.63
2018-05-19T07:47:25.548Z,12.90
2018-05-19T07:49:53.283Z,14.47
2018-05-19T07:52:21.041Z,13.87
2018-05-19T07:54:49.579Z,21.83
2018-05-19T07:57:19.131Z,18.83
2018-05-19T07:59:46.896Z,21.90
2018-05-19T08:02:14.660Z,19.70
2018-05-19T08:04:44.130Z,17.43
2018-05-19T08:07:12.913Z,26.90
2018-05-19T08:09:44.193Z,37.73
2018-05-19T08:12:12.349Z,22.33
2018-05-19T08:14:40.900Z,19.20
2018-05-19T08:17:08.719Z,17.80
2018-05-19T08:19:36.494Z,16.17
2018-05-19T08:22:04.287Z,13.37
2018-05-19T08:24:32.040Z,14.13
2018-05-19T08:26:59.785Z,17.37
2018-05-19T08:29:27.528Z,18.40
2018-05-19T08:31:55.282Z,15.00
2018-05-19T08:34:23.797Z,14.33
2018-05-19T08:36:51.549Z,13.17
2018-05-19T08:39:19.297Z,12.93
2018-05-19T08:41:47.800Z,14.17
2018-05-19T08:44:15.553Z,16.20
2018-05-19T08:46:44.052Z,28.67
2018-05-19T08:49:11.781Z,13.27
2018-05-19T08:51:40.540Z,15.97
2018-05-19T08:54:08.310Z,11.83
2018-05-19T08:56:36.060Z,14.27
2018-05-19T08:59:03.800Z,11.67
2018-05-19T09:01:31.534Z,14.20
2018-05-19T09:03:59.332Z,12.07
2018-05-19T09:06:27.081Z,30.50
2018-05-19T09:08:54.843Z,19.77
2018-05-19T09:11:22.577Z,23.10
2018-05-19T09:13:51.085Z,22.77
2018-05-19T09:16:18.826Z,14.93
2018-05-19T09:18:47.317Z,15.60
2018-05-19T09:21:15.061Z,16.70
2018-05-19T09:23:43.561Z,17.13
2018-05-19T09:26:11.360Z,13.70
2018-05-19T09:28:39.955Z,21.40
2018-05-19T09:31:07.725Z,22.53
2018-05-19T09:33:35.457Z,17.57
2018-05-19T09:36:03.812Z,15.87
2018-05-19T09:38:31.622Z,15.60
2018-05-19T09:40:59.365Z,17.17
2018-05-19T09:43:27.102Z,12.73
2018-05-19T09:45:54.860Z,14.10
2018-05-19T09:48:23.356Z,16.77
2018-05-19T09:50:51.094Z,15.27
2018-05-19T09:53:19.606Z,14.93
2018-05-19T09:55:47.369Z,12.23
2018-05-19T09:58:15.110Z,11.90
2018-05-19T10:00:43.663Z,11.60
2018-05-19T10:03:12.212Z,10.93
2018-05-19T10:05:40.049Z,13.17
2018-05-19T10:08:07.793Z,13.40
2018-05-19T10:10:36.334Z,11.63
2018-05-19T10:13:04.169Z,14.70
2018-05-19T10:15:31.928Z,16.73
2018-05-19T10:17:59.714Z,17.30
2018-05-19T10:20:27.469Z,12.50
2018-05-19T10:22:55.367Z,16.47
2018-05-19T10:25:23.057Z,17.63
2018-05-19T10:27:51.561Z,15.50
2018-05-19T10:30:19.314Z,15.90
2018-05-19T10:32:47.838Z,17.40
2018-05-19T10:35:15.582Z,17.50
2018-05-19T10:37:43.316Z,18.13
2018-05-19T10:40:11.194Z,14.40
2018-05-19T10:42:39.691Z,14.17
2018-05-19T10:45:07.439Z,20.33
2018-05-19T10:47:35.942Z,21.20
2018-05-19T10:50:03.787Z,23.83
2018-05-19T10:52:31.541Z,15.40
2018-05-19T10:55:00.049Z,12.10
2018-05-19T10:57:27.920Z,16.50
2018-05-19T10:59:55.652Z,13.23
2018-05-19T11:02:24.269Z,17.43
2018-05-19T11:04:52.017Z,13.53
2018-05-19T11:07:19.766Z,21.63
2018-05-19T11:09:48.327Z,19.00
2018-05-19T11:12:16.861Z,15.47
2018-05-19T11:14:44.609Z,20.10
2018-05-19T11:17:12.348Z,15.80
2018-05-19T11:19:40.157Z,19.83
2018-05-19T11:22:07.880Z,18.33
2018-05-19T11:24:36.386Z,13.83
2018-05-19T11:27:04.117Z,20.90
2018-05-19T11:29:31.866Z,14.00
2018-05-19T11:31:59.629Z,14.23
2018-05-19T11:34:27.374Z,14.33
2018-05-19T11:36:55.120Z,14.73
2018-05-19T11:39:22.849Z,14.20
2018-05-19T11:41:51.349Z,23.43
2018-05-19T11:44:19.084Z,14.87
2018-05-19T11:46:47.614Z,12.90
2018-05-19T11:49:15.429Z,15.67
2018-05-19T11:51:43.941Z,28.93
2018-05-19T11:54:11.700Z,19.00
2018-05-19T11:56:39.473Z,19.67
2018-05-19T11:59:07.237Z,19.70
2018-05-19T12:01:34.995Z,15.90
2018-05-19T12:04:02.733Z,13.70
2018-05-19T12:06:31.288Z,15.67
2018-05-19T12:08:59.042Z,17.67
2018-05-19T12:11:26.805Z,15.03
2018-05-19T12:13:54.636Z,14.90
2018-05-19T12:16:22.368Z,21.53
2018-05-19T12:18:50.886Z,16.40
2018-05-19T12:21:18.620Z,16.27
2018-05-19T12:23:47.141Z,16.30
2018-05-19T12:26:14.925Z,21.37
2018-05-19T12:28:42.673Z,15.40
2018-05-19T12:31:10.457Z,21.10
2018-05-19T12:33:38.225Z,19.93
2018-05-19T12:36:05.969Z,15.90
2018-05-19T12:38:34.024Z,15.03
2018-05-19T12:41:01.890Z,15.43
2018-05-19T12:43:29.642Z,15.47
2018-05-19T12:45:57.486Z,12.90
2018-05-19T12:48:26.030Z,28.20
2018-05-19T12:50:53.788Z,14.40
2018-05-19T12:53:21.568Z,16.50
2018-05-19T12:55:49.347Z,16.10
2018-05-19T12:58:17.092Z,19.80
2018-05-19T13:00:44.904Z,14.23
2018-05-19T13:03:12.641Z,12.23
2018-05-19T13:05:40.384Z,16.50
2018-05-19T13:08:08.117Z,14.33
2018-05-19T13:10:36.609Z,12.83
2018-05-19T13:13:04.332Z,12.60
2018-05-19T13:15:32.844Z,16.97
2018-05-19T13:18:00.577Z,16.40
2018-05-19T13:20:29.065Z,16.10
2018-05-19T13:22:56.868Z,20.90
2018-05-19T13:25:24.620Z,15.97
2018-05-19T13:27:52.352Z,14.70
2018-05-19T13:30:20.149Z,17.87
2018-05-19T13:32:47.884Z,22.53
2018-05-19T13:35:16.397Z,12.83
2018-05-19T13:37:44.117Z,17.07
2018-05-19T13:40:12.652Z,11.27
2018-05-19T13:42:40.400Z,16.83
2018-05-19T13:45:08.133Z,16.07
2018-05-19T13:47:36.645Z,11.00
2018-05-19T13:50:04.401Z,16.47
2018-05-19T13:52:32.129Z,13.33
2018-05-19T13:55:00.645Z,16.53
2018-05-19T13:57:28.386Z,16.60
2018-05-19T13:59:56.968Z,11.57
2018-05-19T14:02:25.490Z,13.97
2018-05-19T14:04:53.246Z,15.57
2018-05-19T14:07:21.013Z,16.10
2018-05-19T14:09:48.759Z,14.83
2018-05-19T14:12:16.534Z,17.90
2018-05-19T14:14:44.322Z,18.03
2018-05-19T14:17:12.079Z,15.97
2018-05-19T14:19:39.808Z,12.90
2018-05-19T14:22:07.560Z,15.33
2018-05-19T14:24:36.067Z,11.30
2018-05-19T14:27:03.810Z,18.80
2018-05-19T14:29:31.654Z,13.27
2018-05-19T14:31:59.416Z,15.60
2018-05-19T14:34:27.924Z,15.80
2018-05-19T14:36:55.741Z,21.70
2018-05-19T14:39:23.516Z,15.83
2018-05-19T14:41:51.253Z,17.10
2018-05-19T14:44:19.000Z,17.53
2018-05-19T14:46:46.754Z,15.10
2018-05-19T14:49:14.500Z,16.07
2018-05-19T14:51:42.997Z,19.73
2018-05-19T14:54:10.744Z,12.27
2018-05-19T14:56:39.334Z,13.27
2018-05-19T14:59:07.109Z,17.37
2018-05-19T15:01:34.856Z,15.83
2018-05-19T15:04:03.373Z,21.07
2018-05-19T15:06:31.129Z,19.83
2018-05-19T15:08:58.884Z,15.23
2018-05-19T15:11:26.636Z,13.60
2018-05-19T15:13:54.434Z,18.90
2018-05-19T15:16:22.172Z,13.27
2018-05-19T15:18:49.920Z,18.63
2018-05-19T15:21:17.700Z,18.33
2018-05-19T15:23:45.441Z,12.00
2018-05-19T15:26:13.956Z,13.37
2018-05-19T15:28:41.705Z,17.10
2018-05-19T15:31:09.464Z,17.90
2018-05-19T15:33:37.294Z,18.90
2018-05-19T15:36:05.040Z,13.17
2018-05-19T15:38:32.822Z,15.63
2018-05-19T15:41:00.636Z,17.87
2018-05-19T15:43:28.415Z,15.33
2018-05-19T15:45:56.170Z,16.53
2018-05-19T15:48:23.995Z,21.17
2018-05-19T15:50:52.513Z,21.83
2018-05-19T15:53:20.267Z,17.80
2018-05-19T15:55:48.028Z,19.60
2018-05-19T15:58:15.820Z,13.43
2018-05-19T16:00:43.569Z,17.57
2018-05-19T16:03:11.410Z,16.50
2018-05-19T16:05:39.141Z,18.27
2018-05-19T16:08:06.908Z,27.40
2018-05-19T16:10:34.673Z,13.97
2018-05-19T16:13:02.466Z,14.10
2018-05-19T16:15:30.222Z,13.30
2018-05-19T16:17:58.732Z,17.50
2018-05-19T16:20:26.523Z,11.70
2018-05-19T16:22:54.276Z,14.47
2018-05-19T16:25:22.022Z,12.97
2018-05-19T16:27:49.754Z,9.30
2018-05-19T16:30:18.352Z,15.27
2018-05-19T16:32:46.116Z,11.97
2018-05-19T16:35:14.684Z,11.03
2018-05-19T16:37:43.196Z,13.80
2018-05-19T16:40:11.006Z,11.13
2018-05-19T16:42:38.736Z,12.27
2018-05-19T16:45:06.496Z,13.00
2018-05-19T16:47:34.275Z,14.23
2018-05-19T16:50:02.024Z,12.10
2018-05-19T16:52:29.790Z,11.83
2018-05-19T16:54:57.577Z,13.20
2018-05-19T16:57:25.326Z,9.07
2018-05-19T16:59:53.100Z,12.50
2018-05-19T17:02:20.837Z,10.37
2018-05-19T17:04:48.708Z,10.63
2018-05-19T17:07:18.013Z,20.10
2018-05-19T17:09:45.787Z,16.77
2018-05-19T17:12:13.555Z,10.13
2018-05-19T17:14:41.303Z,13.87
2018-05-19T17:17:09.093Z,13.67
2018-05-19T17:19:36.836Z,14.67
2018-05-19T17:22:04.597Z,14.50
2018-05-19T17:24:32.350Z,14.50
2018-05-19T17:27:00.100Z,17.70
2018-05-19T17:29:27.850Z,18.47
2018-05-19T17:31:56.387Z,9.87
2018-05-19T17:34:24.120Z,15.80
2018-05-19T17:36:51.845Z,22.40
2018-05-19T17:39:19.605Z,13.53
2018-05-19T17:41:48.216Z,9.20
2018-05-19T17:44:16.743Z,11.30
2018-05-19T17:46:45.501Z,9.77
2018-05-19T17:49:13.261Z,9.47
2018-05-19T17:51:41.062Z,12.13
2018-05-19T17:54:08.799Z,15.70
2018-05-19T17:56:37.421Z,8.03
2018-05-19T17:59:05.227Z,11.73
2018-05-19T18:01:33.810Z,15.00
2018-05-19T18:04:02.372Z,12.93
2018-05-19T18:06:30.900Z,16.30
2018-05-19T18:08:58.649Z,10.97
2018-05-19T18:11:26.402Z,19.73
2018-05-19T18:13:54.988Z,12.20
2018-05-19T18:16:22.700Z,13.07
2018-05-19T18:18:50.490Z,23.80
2018-05-19T18:21:19.019Z,11.53
2018-05-19T18:23:46.758Z,10.63
2018-05-19T18:26:15.296Z,14.60
2018-05-19T18:28:43.138Z,17.57
2018-05-19T18:31:11.625Z,10.73
2018-05-19T18:33:39.344Z,11.00
2018-05-19T18:36:07.845Z,10.93
2018-05-19T18:38:35.573Z,12.50
2018-05-19T18:41:04.118Z,10.90
2018-05-19T18:43:31.887Z,10.77
2018-05-19T18:45:59.627Z,10.50
2018-05-19T18:48:27.364Z,18.53
2018-05-19T18:50:55.939Z,14.77
2018-05-19T18:53:24.510Z,20.73
2018-05-19T18:55:52.501Z,13.07
2018-05-19T18:58:22.276Z,9.77
2018-05-19T19:00:50.024Z,18.30
2018-05-19T19:03:17.772Z,16.80
2018-05-19T19:05:45.513Z,18.83
2018-05-19T19:08:13.369Z,14.37
2018-05-19T19:10:42.080Z,16.63
2018-05-19T19:13:10.599Z,17.13
2018-05-19T19:15:38.337Z,22.57
2018-05-19T19:18:06.127Z,18.80
2018-05-19T19:20:33.874Z,21.80
2018-05-19T19:23:01.620Z,12.93
2018-05-19T19:25:29.402Z,19.33
2018-05-19T19:27:57.168Z,17.63
2018-05-19T19:30:24.937Z,21.33
2018-05-19T19:32:52.690Z,13.03
2018-05-19T19:35:20.476Z,11.53
2018-05-19T19:37:48.262Z,16.13
2018-05-19T19:40:16.783Z,16.90
2018-05-19T19:42:45.558Z,13.87
2018-05-19T19:45:13.304Z,15.40
2018-05-19T19:47:41.844Z,17.30
2018-05-19T19:50:09.719Z,16.67
2018-05-19T19:52:37.436Z,21.67
2018-05-19T19:55:05.180Z,15.10
2018-05-19T19:57:33.687Z,17.43
2018-05-19T20:00:01.460Z,20.33
2018-05-19T20:02:29.238Z,18.47
2018-05-19T20:04:57.009Z,16.57
2018-05-19T20:07:24.756Z,18.13
2018-05-19T20:09:52.573Z,19.13
2018-05-19T20:12:21.112Z,23.17
2018-05-19T20:14:48.843Z,28.90
2018-05-19T20:17:16.592Z,23.00
2018-05-19T20:19:45.105Z,24.00
2018-05-19T20:22:12.841Z,18.00
2018-05-19T20:24:40.657Z,20.67
2018-05-19T20:27:08.424Z,19.60
2018-05-19T20:29:36.189Z,24.93
2018-05-19T20:32:03.972Z,27.77
2018-05-19T20:34:31.760Z,23.03
2018-05-19T20:37:00.288Z,17.20
2018-05-19T20:39:28.096Z,20.70
2018-05-19T20:41:56.723Z,27.73
2018-05-19T20:44:24.589Z,19.60
2018-05-19T20:46:52.404Z,20.67
2018-05-19T20:49:20.924Z,22.57
2018-05-19T20:51:48.657Z,21.13
2018-05-19T20:54:17.180Z,21.47
2018-05-19T20:56:44.927Z,20.80
2018-05-19T20:59:12.662Z,20.90
2018-05-19T21:01:41.198Z,22.97
2018-05-19T21:04:08.975Z,18.20
2018-05-19T21:06:36.762Z,27.43
2018-05-19T21:09:05.420Z,30.60
2018-05-19T21:11:33.184Z,26.63
2018-05-19T21:14:00.998Z,20.23
2018-05-19T21:16:29.533Z,22.80
2018-05-19T21:18:57.397Z,21.33
2018-05-19T21:21:25.851Z,17.40
2018-05-19T21:23:53.605Z,18.83
2018-05-19T21:26:21.356Z,18.03
2018-05-19T21:28:49.951Z,23.70
2018-05-19T21:31:17.700Z,18.97
2018-05-19T21:33:45.615Z,22.90
2018-05-19T21:36:13.394Z,20.10
2018-05-19T21:38:41.123Z,20.13
2018-05-19T21:41:08.968Z,17.37
2018-05-19T21:43:36.714Z,16.50
2018-05-19T21:46:05.327Z,16.87
2018-05-19T21:48:33.156Z,21.33
2018-05-19T21:51:00.900Z,18.40
2018-05-19T21:53:28.704Z,17.07
2018-05-19T21:55:56.542Z,15.40
2018-05-19T21:58:24.292Z,15.13
2018-05-19T22:00:52.066Z,21.90
2018-05-19T22:03:19.930Z,18.50
2018-05-19T22:05:47.919Z,20.60
2018-05-19T22:08:16.448Z,16.77
2018-05-19T22:10:44.197Z,18.90
2018-05-19T22:13:11.944Z,22.63
2018-05-19T22:15:40.591Z,29.60
2018-05-19T22:18:09.248Z,21.07
2018-05-19T22:20:37.000Z,28.33
2018-05-19T22:23:05.536Z,22.90
2018-05-19T22:25:33.290Z,18.33
2018-05-19T22:28:01.076Z,18.70
2018-05-19T22:30:29.824Z,20.70
2018-05-19T22:32:57.583Z,27.63
2018-05-19T22:35:26.152Z,20.17
2018-05-19T22:37:54.777Z,26.30
2018-05-19T22:40:22.521Z,30.53
2018-05-19T22:42:50.281Z,28.77
2018-05-19T22:45:18.109Z,30.10
2018-05-19T22:47:45.853Z,24.90
2018-05-19T22:50:14.376Z,32.43
2018-05-19T22:52:42.142Z,26.60
2018-05-19T22:55:09.918Z,27.00
2018-05-19T22:57:37.663Z,28.03
2018-05-19T23:00:05.449Z,21.70
2018-05-19T23:02:33.222Z,26.20
2018-05-19T23:05:01.037Z,22.97
2018-05-19T23:07:28.794Z,26.73
2018-05-19T23:09:57.304Z,36.00
2018-05-19T23:12:25.045Z,25.23
2018-05-19T23:14:52.825Z,24.77
2018-05-19T23:17:20.556Z,26.23
2018-05-19T23:19:49.073Z,29.50
2018-05-19T23:22:16.900Z,28.07
2018-05-19T23:24:45.410Z,29.87
2018-05-19T23:27:13.161Z,23.77
2018-05-19T23:29:41.679Z,29.63
2018-05-19T23:32:09.417Z,27.80
2018-05-19T23:34:37.172Z,24.00
2018-05-19T23:37:04.908Z,29.27
2018-05-19T23:39:33.428Z,26.93
2018-05-19T23:42:01.265Z,24.80
2018-05-19T23:44:29.783Z,19.23
2018-05-19T23:46:57.527Z,24.93
2018-05-19T23:49:25.288Z,21.93
2018-05-19T23:51:53.040Z,18.67
2018-05-19T23:54:21.570Z,18.00
2018-05-19T23:56:49.326Z,20.57
2018-05-19T23:59:17.827Z,18.67
